createdAt,value
2019-02-16T00:00:12.303Z,29.52
2019-02-16T00:01:15.694Z,29.60
2019-02-16T00:01:48.588Z,29.98
2019-02-16T00:02:22.892Z,29.70
2019-02-16T00:02:55.688Z,29.80
2019-02-16T00:03:28.634Z,29.75
2019-02-16T00:04:01.570Z,29.60
2019-02-16T00:04:34.483Z,29.67
2019-02-16T00:05:09.236Z,29.87
2019-02-16T00:07:30.008Z,29.72
2019-02-16T00:08:02.949Z,29.65
2019-02-16T00:08:35.836Z,30.00
2019-02-16T00:09:09.820Z,29.48
2019-02-16T00:09:42.724Z,29.90
2019-02-16T00:10:15.739Z,29.75
2019-02-16T00:10:48.764Z,29.67
2019-02-16T00:11:21.706Z,29.48
2019-02-16T00:11:54.738Z,29.45
2019-02-16T00:12:27.746Z,30.15
2019-02-16T00:13:00.765Z,29.87
2019-02-16T00:13:33.792Z,29.52
2019-02-16T00:14:06.783Z,30.68
2019-02-16T00:14:39.738Z,30.60
2019-02-16T00:15:12.830Z,29.85
2019-02-16T00:15:45.895Z,30.23
2019-02-16T00:16:19.038Z,29.50
2019-02-16T00:16:52.071Z,29.23
2019-02-16T00:17:24.993Z,29.37
2019-02-16T00:17:58.007Z,29.85
2019-02-16T00:18:31.093Z,29.87
2019-02-16T00:19:04.027Z,29.40
2019-02-16T00:19:36.856Z,29.80
2019-02-16T00:20:09.814Z,29.50
2019-02-16T00:20:42.640Z,29.77
2019-02-16T00:21:31.300Z,29.65
2019-02-16T00:22:04.254Z,29.55
2019-02-16T00:22:37.344Z,30.12
2019-02-16T00:23:10.691Z,29.98
2019-02-16T00:23:43.859Z,29.63
2019-02-16T00:24:16.771Z,29.45
2019-02-16T00:25:07.929Z,30.20
2019-02-16T00:25:40.802Z,30.95
2019-02-16T00:26:13.793Z,30.25
2019-02-16T00:26:46.863Z,30.60
2019-02-16T00:27:19.920Z,30.35
2019-02-16T00:27:52.881Z,30.08
2019-02-16T00:28:26.084Z,29.75
2019-02-16T00:28:58.974Z,29.85
2019-02-16T00:29:31.926Z,30.48
2019-02-16T00:30:05.094Z,30.32
2019-02-16T00:30:37.954Z,29.72
2019-02-16T00:31:10.917Z,29.57
2019-02-16T00:31:43.871Z,29.70
2019-02-16T00:32:16.693Z,29.75
2019-02-16T00:32:49.727Z,29.77
2019-02-16T00:33:22.629Z,30.12
2019-02-16T00:33:55.613Z,29.10
2019-02-16T00:34:28.623Z,29.92
2019-02-16T00:35:01.779Z,29.40
2019-02-16T00:35:35.573Z,29.48
2019-02-16T00:36:08.658Z,29.80
2019-02-16T00:36:41.539Z,29.57
2019-02-16T00:37:14.537Z,29.57
2019-02-16T00:37:47.429Z,29.48
2019-02-16T00:38:20.357Z,29.63
2019-02-16T00:38:54.262Z,30.08
2019-02-16T00:39:27.387Z,30.60
2019-02-16T00:40:00.371Z,29.77
2019-02-16T00:40:33.241Z,30.17
2019-02-16T00:41:06.139Z,29.90
2019-02-16T00:41:39.103Z,29.98
2019-02-16T00:42:13.635Z,29.98
2019-02-16T00:42:46.669Z,29.57
2019-02-16T00:43:19.559Z,29.65
2019-02-16T00:43:52.743Z,30.15
2019-02-16T00:44:25.649Z,29.60
2019-02-16T00:44:58.691Z,29.50
2019-02-16T00:45:31.706Z,29.85
2019-02-16T00:46:04.646Z,29.63
2019-02-16T00:46:37.739Z,29.45
2019-02-16T00:47:10.811Z,29.27
2019-02-16T00:47:43.691Z,30.20
2019-02-16T00:48:16.725Z,29.80
2019-02-16T00:48:49.771Z,29.98
2019-02-16T00:49:22.825Z,30.10
2019-02-16T00:49:55.818Z,30.00
2019-02-16T00:50:28.839Z,30.00
2019-02-16T00:51:01.838Z,30.43
2019-02-16T00:51:34.860Z,29.55
2019-02-16T00:52:09.667Z,29.60
2019-02-16T00:52:42.719Z,29.70
2019-02-16T00:53:15.709Z,29.32
2019-02-16T00:53:48.576Z,30.50
2019-02-16T00:54:21.486Z,29.40
2019-02-16T00:54:54.335Z,29.60
2019-02-16T00:55:27.325Z,29.37
2019-02-16T00:56:00.372Z,29.57
2019-02-16T00:56:33.239Z,29.90
2019-02-16T00:57:06.325Z,30.45
2019-02-16T00:57:39.216Z,30.12
2019-02-16T00:58:12.161Z,29.95
2019-02-16T00:58:45.188Z,29.27
2019-02-16T00:59:18.118Z,29.57
2019-02-16T00:59:51.003Z,29.07
2019-02-16T01:00:23.981Z,29.20
2019-02-16T01:00:56.963Z,29.87
2019-02-16T01:01:30.019Z,29.95
2019-02-16T01:02:03.093Z,29.35
2019-02-16T01:02:36.151Z,29.60
2019-02-16T01:03:09.207Z,29.75
2019-02-16T01:03:42.079Z,29.95
2019-02-16T01:04:15.069Z,29.65
2019-02-16T01:04:48.134Z,29.95
2019-02-16T01:05:20.875Z,30.25
2019-02-16T01:05:53.832Z,29.77
2019-02-16T01:06:26.890Z,30.27
2019-02-16T01:06:59.832Z,29.77
2019-02-16T01:07:32.738Z,30.23
2019-02-16T01:08:05.709Z,30.55
2019-02-16T01:08:38.633Z,30.20
2019-02-16T01:09:11.559Z,29.37
2019-02-16T01:09:44.565Z,29.60
2019-02-16T01:10:17.652Z,29.70
2019-02-16T01:10:50.533Z,30.00
2019-02-16T01:11:23.474Z,30.00
2019-02-16T01:11:57.397Z,30.00
2019-02-16T01:12:30.218Z,29.85
2019-02-16T01:13:04.001Z,30.17
2019-02-16T01:13:36.837Z,30.43
2019-02-16T01:14:09.821Z,30.00
2019-02-16T01:14:42.745Z,30.08
2019-02-16T01:15:15.716Z,30.30
2019-02-16T01:15:48.851Z,30.43
2019-02-16T01:16:21.855Z,29.80
2019-02-16T01:16:54.781Z,30.10
2019-02-16T01:17:29.064Z,29.85
2019-02-16T01:18:02.069Z,30.43
2019-02-16T01:18:36.077Z,29.87
2019-02-16T01:19:09.013Z,29.75
2019-02-16T01:19:42.022Z,30.17
2019-02-16T01:20:14.851Z,30.40
2019-02-16T01:20:49.883Z,30.45
2019-02-16T01:21:23.253Z,29.95
2019-02-16T01:21:57.803Z,30.12
2019-02-16T01:22:30.842Z,30.32
2019-02-16T01:23:03.869Z,30.20
2019-02-16T01:23:36.811Z,29.82
2019-02-16T01:24:09.927Z,30.62
2019-02-16T01:24:42.839Z,29.98
2019-02-16T01:25:15.791Z,30.08
2019-02-16T01:25:48.630Z,29.70
2019-02-16T01:26:21.641Z,29.82
2019-02-16T01:26:54.603Z,29.87
2019-02-16T01:27:27.581Z,30.05
2019-02-16T01:28:01.445Z,30.02
2019-02-16T01:28:36.159Z,29.90
2019-02-16T01:29:09.123Z,30.30
2019-02-16T01:29:43.519Z,29.95
2019-02-16T01:30:16.616Z,29.50
2019-02-16T01:30:49.825Z,29.80
2019-02-16T01:31:22.856Z,30.10
2019-02-16T01:31:55.826Z,29.65
2019-02-16T01:32:28.976Z,29.70
2019-02-16T01:33:02.122Z,30.10
2019-02-16T01:33:35.196Z,30.12
2019-02-16T01:34:08.255Z,29.80
2019-02-16T01:34:41.132Z,30.17
2019-02-16T01:35:14.182Z,29.57
2019-02-16T01:35:47.233Z,29.85
2019-02-16T01:36:20.175Z,30.20
2019-02-16T01:36:53.003Z,30.35
2019-02-16T01:37:26.029Z,29.92
2019-02-16T01:37:58.968Z,30.00
2019-02-16T01:38:32.129Z,29.57
2019-02-16T01:39:05.633Z,29.37
2019-02-16T01:39:38.556Z,30.25
2019-02-16T01:40:11.734Z,30.20
2019-02-16T01:40:44.769Z,30.27
2019-02-16T01:41:17.736Z,30.70
2019-02-16T01:41:50.855Z,29.30
2019-02-16T01:42:24.019Z,29.80
2019-02-16T01:42:56.961Z,29.98
2019-02-16T01:43:29.988Z,29.77
2019-02-16T01:44:04.057Z,30.00
2019-02-16T01:44:36.998Z,30.15
2019-02-16T01:45:10.233Z,29.98
2019-02-16T01:45:43.183Z,30.08
2019-02-16T01:46:16.240Z,29.55
2019-02-16T01:46:49.325Z,29.65
2019-02-16T01:47:22.108Z,30.05
2019-02-16T01:47:55.025Z,30.17
2019-02-16T01:48:28.007Z,29.80
2019-02-16T01:49:00.931Z,29.70
2019-02-16T01:49:33.853Z,29.57
2019-02-16T01:50:08.215Z,30.17
2019-02-16T01:50:41.223Z,30.00
2019-02-16T01:51:14.197Z,30.12
2019-02-16T01:51:47.062Z,30.75
2019-02-16T01:52:20.017Z,30.30
2019-02-16T01:52:52.995Z,30.12
2019-02-16T01:53:25.847Z,30.48
2019-02-16T01:53:58.795Z,29.87
2019-02-16T01:54:31.857Z,29.52
2019-02-16T01:55:07.722Z,30.70
2019-02-16T01:55:40.774Z,30.17
2019-02-16T01:56:13.699Z,30.27
2019-02-16T01:56:46.713Z,29.80
2019-02-16T01:57:19.650Z,30.48
2019-02-16T01:57:52.661Z,30.30
2019-02-16T01:58:25.689Z,30.27
2019-02-16T01:58:58.735Z,30.48
2019-02-16T01:59:31.885Z,30.00
2019-02-16T02:00:06.431Z,30.30
2019-02-16T02:00:39.507Z,29.98
2019-02-16T02:01:12.437Z,30.23
2019-02-16T02:01:45.387Z,30.20
2019-02-16T02:02:18.327Z,29.95
2019-02-16T02:02:51.360Z,30.20
2019-02-16T02:03:24.385Z,30.30
2019-02-16T02:03:57.305Z,30.27
2019-02-16T02:04:30.258Z,30.60
2019-02-16T02:05:03.477Z,30.50
2019-02-16T02:05:36.331Z,30.35
2019-02-16T02:06:09.276Z,30.12
2019-02-16T02:06:42.141Z,30.17
2019-02-16T02:07:15.321Z,29.98
2019-02-16T02:07:48.247Z,30.60
2019-02-16T02:08:21.089Z,29.85
2019-02-16T02:08:54.067Z,30.72
2019-02-16T02:09:27.102Z,31.07
2019-02-16T02:10:00.367Z,30.52
2019-02-16T02:10:33.365Z,30.12
2019-02-16T02:11:06.603Z,30.65
2019-02-16T02:11:39.527Z,30.10
2019-02-16T02:12:12.464Z,30.57
2019-02-16T02:12:45.381Z,30.68
2019-02-16T02:13:18.223Z,30.82
2019-02-16T02:13:51.605Z,30.32
2019-02-16T02:14:24.583Z,30.72
2019-02-16T02:14:57.763Z,30.68
2019-02-16T02:15:30.709Z,30.68
2019-02-16T02:16:03.731Z,30.68
2019-02-16T02:16:36.797Z,30.92
2019-02-16T02:17:09.842Z,30.32
2019-02-16T02:17:42.805Z,30.50
2019-02-16T02:18:15.827Z,30.27
2019-02-16T02:18:48.964Z,30.68
2019-02-16T02:19:21.997Z,30.70
2019-02-16T02:19:54.939Z,31.00
2019-02-16T02:20:28.869Z,29.98
2019-02-16T02:21:01.725Z,30.30
2019-02-16T02:21:40.917Z,30.60
2019-02-16T02:22:09.618Z,30.75
2019-02-16T02:22:42.483Z,30.40
2019-02-16T02:23:15.363Z,29.80
2019-02-16T02:23:48.283Z,30.72
2019-02-16T02:24:21.255Z,30.25
2019-02-16T02:24:54.374Z,30.43
2019-02-16T02:25:27.317Z,30.17
2019-02-16T02:26:00.278Z,30.08
2019-02-16T02:26:33.289Z,30.80
2019-02-16T02:27:06.313Z,30.65
2019-02-16T02:27:39.443Z,30.85
2019-02-16T02:28:12.372Z,31.17
2019-02-16T02:28:45.329Z,30.85
2019-02-16T02:29:18.379Z,30.02
2019-02-16T02:29:51.213Z,31.23
2019-02-16T02:30:24.361Z,30.48
2019-02-16T02:30:57.369Z,30.80
2019-02-16T02:31:30.410Z,30.60
2019-02-16T02:32:03.297Z,30.55
2019-02-16T02:32:36.348Z,30.43
2019-02-16T02:33:09.411Z,30.32
2019-02-16T02:33:43.463Z,30.30
2019-02-16T02:34:16.446Z,30.68
2019-02-16T02:34:49.375Z,30.68
2019-02-16T02:35:22.353Z,30.62
2019-02-16T02:35:55.164Z,30.90
2019-02-16T02:36:28.041Z,30.50
2019-02-16T02:37:01.152Z,31.12
2019-02-16T02:37:34.102Z,30.65
2019-02-16T02:38:07.117Z,30.55
2019-02-16T02:38:41.205Z,30.55
2019-02-16T02:39:14.521Z,31.30
2019-02-16T02:39:47.485Z,31.23
2019-02-16T02:40:20.391Z,31.40
2019-02-16T02:40:53.375Z,31.97
2019-02-16T02:41:26.400Z,32.28
2019-02-16T02:41:59.385Z,31.23
2019-02-16T02:42:32.212Z,31.20
2019-02-16T02:43:05.185Z,30.88
2019-02-16T02:43:38.129Z,31.77
2019-02-16T02:44:11.222Z,31.37
2019-02-16T02:44:44.111Z,31.95
2019-02-16T02:45:17.211Z,31.57
2019-02-16T02:45:50.123Z,31.68
2019-02-16T02:46:23.205Z,31.82
2019-02-16T02:46:56.148Z,31.15
2019-02-16T02:47:29.192Z,31.12
2019-02-16T02:48:02.207Z,31.23
2019-02-16T02:48:35.167Z,31.27
2019-02-16T02:49:08.147Z,31.42
2019-02-16T02:49:41.230Z,32.05
2019-02-16T02:50:14.213Z,31.35
2019-02-16T02:50:47.208Z,32.10
2019-02-16T02:51:20.229Z,31.45
2019-02-16T02:51:53.203Z,31.70
2019-02-16T02:52:26.212Z,32.48
2019-02-16T02:52:59.063Z,32.55
2019-02-16T02:53:32.337Z,32.25
2019-02-16T02:54:05.399Z,32.60
2019-02-16T02:54:38.429Z,32.42
2019-02-16T02:55:11.364Z,32.48
2019-02-16T02:55:44.545Z,32.85
2019-02-16T02:56:17.525Z,32.03
2019-02-16T02:56:50.362Z,32.23
2019-02-16T02:57:23.403Z,32.00
2019-02-16T02:57:56.197Z,32.10
2019-02-16T02:58:29.307Z,31.95
2019-02-16T02:59:02.418Z,32.45
2019-02-16T02:59:35.269Z,31.73
2019-02-16T03:00:08.635Z,32.60
2019-02-16T03:00:41.706Z,33.00
2019-02-16T03:01:14.877Z,32.85
2019-02-16T03:01:47.976Z,33.55
2019-02-16T03:02:20.890Z,33.05
2019-02-16T03:02:53.957Z,33.10
2019-02-16T03:03:26.873Z,35.03
2019-02-16T03:03:59.756Z,34.27
2019-02-16T03:04:32.576Z,35.15
2019-02-16T03:05:07.213Z,34.20
2019-02-16T03:05:40.015Z,34.48
2019-02-16T03:06:13.122Z,34.90
2019-02-16T03:06:46.071Z,34.92
2019-02-16T03:07:19.119Z,34.48
2019-02-16T03:07:52.095Z,34.53
2019-02-16T03:08:25.054Z,35.13
2019-02-16T03:08:57.976Z,35.60
2019-02-16T03:09:30.936Z,35.23
2019-02-16T03:10:04.464Z,35.15
2019-02-16T03:10:37.469Z,36.28
2019-02-16T03:11:10.606Z,35.28
2019-02-16T03:11:43.570Z,35.80
2019-02-16T03:12:16.482Z,35.80
2019-02-16T03:12:49.400Z,35.92
2019-02-16T03:13:22.319Z,36.60
2019-02-16T03:13:55.166Z,37.30
2019-02-16T03:14:28.081Z,37.90
2019-02-16T03:15:01.188Z,36.45
2019-02-16T03:15:35.202Z,36.55
2019-02-16T03:16:08.176Z,35.85
2019-02-16T03:16:41.217Z,36.70
2019-02-16T03:17:14.195Z,36.95
2019-02-16T03:17:47.142Z,36.42
2019-02-16T03:18:20.058Z,37.58
2019-02-16T03:18:53.099Z,37.80
2019-02-16T03:19:26.191Z,37.83
2019-02-16T03:19:59.102Z,39.40
2019-02-16T03:20:32.061Z,39.30
2019-02-16T03:21:04.961Z,39.13
2019-02-16T03:21:37.924Z,38.53
2019-02-16T03:22:10.911Z,38.95
2019-02-16T03:23:28.741Z,37.50
2019-02-16T03:24:01.642Z,37.78
2019-02-16T03:24:34.680Z,37.50
2019-02-16T03:25:07.748Z,37.45
2019-02-16T03:25:57.772Z,37.40
2019-02-16T03:27:28.718Z,37.93
2019-02-16T03:28:31.933Z,37.90
2019-02-16T03:30:01.877Z,37.25
2019-02-16T03:31:09.166Z,36.30
2019-02-16T03:32:27.410Z,36.53
2019-02-16T03:33:47.685Z,36.38
2019-02-16T03:34:27.921Z,36.75
2019-02-16T03:36:00.038Z,36.53
2019-02-16T03:37:55.567Z,36.60
2019-02-16T03:39:09.484Z,36.75
2019-02-16T03:39:45.158Z,36.20
2019-02-16T03:40:18.291Z,36.35
2019-02-16T03:40:51.280Z,36.13
2019-02-16T03:41:24.300Z,35.68
2019-02-16T03:41:57.431Z,35.58
2019-02-16T03:42:30.441Z,36.10
2019-02-16T03:43:03.391Z,35.92
2019-02-16T03:43:36.276Z,35.95
2019-02-16T03:44:09.369Z,37.00
2019-02-16T03:44:42.530Z,36.10
2019-02-16T03:45:15.405Z,36.35
2019-02-16T03:45:48.453Z,36.90
2019-02-16T03:46:21.518Z,36.65
2019-02-16T03:46:54.492Z,36.00
2019-02-16T03:47:27.417Z,36.40
2019-02-16T03:48:01.840Z,35.98
2019-02-16T03:48:34.713Z,36.05
2019-02-16T03:49:07.814Z,36.83
2019-02-16T03:49:40.934Z,36.30
2019-02-16T03:50:14.019Z,36.45
2019-02-16T03:50:47.164Z,36.00
2019-02-16T03:51:20.050Z,36.53
2019-02-16T03:51:54.446Z,36.83
2019-02-16T03:52:27.548Z,36.28
2019-02-16T03:53:01.563Z,36.20
2019-02-16T03:53:34.697Z,36.13
2019-02-16T03:54:07.665Z,36.83
2019-02-16T03:54:40.566Z,36.17
2019-02-16T03:55:13.701Z,35.45
2019-02-16T03:55:46.738Z,36.38
2019-02-16T03:56:19.709Z,36.30
2019-02-16T03:56:52.771Z,36.60
2019-02-16T03:57:25.741Z,36.58
2019-02-16T03:57:58.620Z,36.68
2019-02-16T03:58:31.605Z,36.42
2019-02-16T03:59:04.690Z,36.33
2019-02-16T03:59:37.686Z,35.83
2019-02-16T04:00:10.799Z,36.90
2019-02-16T04:00:43.874Z,37.15
2019-02-16T04:01:16.829Z,36.55
2019-02-16T04:01:49.907Z,35.63
2019-02-16T04:02:22.989Z,36.55
2019-02-16T04:02:56.103Z,36.58
2019-02-16T04:03:28.960Z,36.25
2019-02-16T04:04:02.024Z,36.77
2019-02-16T04:04:35.099Z,36.60
2019-02-16T04:05:08.170Z,36.68
2019-02-16T04:05:41.141Z,36.70
2019-02-16T04:06:14.225Z,36.35
2019-02-16T04:06:49.219Z,35.95
2019-02-16T04:07:23.709Z,35.60
2019-02-16T04:07:56.568Z,35.70
2019-02-16T04:08:29.556Z,35.98
2019-02-16T04:09:05.082Z,35.48
2019-02-16T04:09:38.056Z,35.63
2019-02-16T04:10:11.168Z,36.05
2019-02-16T04:10:44.130Z,36.45
2019-02-16T04:11:17.162Z,35.98
2019-02-16T04:11:50.058Z,36.58
2019-02-16T04:12:22.986Z,36.13
2019-02-16T04:12:55.813Z,36.65
2019-02-16T04:13:28.764Z,36.60
2019-02-16T04:14:01.697Z,36.95
2019-02-16T04:14:34.567Z,35.92
2019-02-16T04:15:07.700Z,36.28
2019-02-16T04:15:40.531Z,36.48
2019-02-16T04:16:13.342Z,36.28
2019-02-16T04:16:46.273Z,36.03
2019-02-16T04:17:19.067Z,36.40
2019-02-16T04:17:51.907Z,36.45
2019-02-16T04:18:24.798Z,35.95
2019-02-16T04:18:59.402Z,36.38
2019-02-16T04:19:32.289Z,36.95
2019-02-16T04:20:05.873Z,37.35
2019-02-16T04:20:38.843Z,36.35
2019-02-16T04:21:11.743Z,36.10
2019-02-16T04:21:44.663Z,36.38
2019-02-16T04:22:24.627Z,36.13
2019-02-16T04:22:52.461Z,36.20
2019-02-16T04:23:25.688Z,36.17
2019-02-16T04:23:58.686Z,38.02
2019-02-16T04:24:31.633Z,36.15
2019-02-16T04:25:04.706Z,36.00
2019-02-16T04:25:37.577Z,35.90
2019-02-16T04:26:11.486Z,36.70
2019-02-16T04:26:44.415Z,36.00
2019-02-16T04:27:17.254Z,36.15
2019-02-16T04:27:50.090Z,36.08
2019-02-16T04:28:23.080Z,36.35
2019-02-16T04:28:56.150Z,35.65
2019-02-16T04:29:29.198Z,36.60
2019-02-16T04:30:02.229Z,35.88
2019-02-16T04:30:35.255Z,35.63
2019-02-16T04:31:08.053Z,36.20
2019-02-16T04:31:40.964Z,36.42
2019-02-16T04:32:13.778Z,36.33
2019-02-16T04:32:46.551Z,35.73
2019-02-16T04:33:19.555Z,35.88
2019-02-16T04:33:52.384Z,35.60
2019-02-16T04:34:25.364Z,35.52
2019-02-16T04:34:58.747Z,34.88
2019-02-16T04:35:31.681Z,36.23
2019-02-16T04:36:04.630Z,35.73
2019-02-16T04:36:37.697Z,36.25
2019-02-16T04:37:10.727Z,35.28
2019-02-16T04:37:43.592Z,35.20
2019-02-16T04:38:16.720Z,34.58
2019-02-16T04:38:49.711Z,34.58
2019-02-16T04:39:22.654Z,33.80
2019-02-16T04:39:55.513Z,33.60
2019-02-16T04:40:28.446Z,33.23
2019-02-16T04:41:01.445Z,33.40
2019-02-16T04:41:34.299Z,34.05
2019-02-16T04:42:07.270Z,33.50
2019-02-16T04:42:40.327Z,32.60
2019-02-16T04:43:13.485Z,33.28
2019-02-16T04:43:46.585Z,33.40
2019-02-16T04:44:19.543Z,33.05
2019-02-16T04:44:52.488Z,32.83
2019-02-16T04:45:25.337Z,33.15
2019-02-16T04:45:58.391Z,33.13
2019-02-16T04:46:31.314Z,33.15
2019-02-16T04:47:04.321Z,33.50
2019-02-16T04:47:37.258Z,32.58
2019-02-16T04:48:10.151Z,32.70
2019-02-16T04:48:43.006Z,33.02
2019-02-16T04:49:15.825Z,32.58
2019-02-16T04:49:48.840Z,32.98
2019-02-16T04:50:22.906Z,33.35
2019-02-16T04:50:55.850Z,33.10
2019-02-16T04:51:28.741Z,33.08
2019-02-16T04:52:01.754Z,32.65
2019-02-16T04:52:35.377Z,32.53
2019-02-16T04:53:08.424Z,32.38
2019-02-16T04:53:41.340Z,32.13
2019-02-16T04:54:14.346Z,32.98
2019-02-16T04:54:47.220Z,32.63
2019-02-16T04:55:20.171Z,32.73
2019-02-16T04:55:53.260Z,33.70
2019-02-16T04:56:26.296Z,33.28
2019-02-16T04:56:59.146Z,32.88
2019-02-16T04:57:31.977Z,33.45
2019-02-16T04:58:04.897Z,33.67
2019-02-16T04:58:37.810Z,32.93
2019-02-16T04:59:10.844Z,32.50
2019-02-16T04:59:43.852Z,32.83
2019-02-16T05:00:16.957Z,32.95
2019-02-16T05:00:49.919Z,32.73
2019-02-16T05:01:22.911Z,32.70
2019-02-16T05:01:55.976Z,32.78
2019-02-16T05:02:28.783Z,32.25
2019-02-16T05:03:01.710Z,32.73
2019-02-16T05:03:35.888Z,32.70
2019-02-16T05:04:08.832Z,32.73
2019-02-16T05:04:41.820Z,32.30
2019-02-16T05:05:14.858Z,33.23
2019-02-16T05:05:48.110Z,33.45
2019-02-16T05:06:21.192Z,33.00
2019-02-16T05:06:54.103Z,32.88
2019-02-16T05:07:27.141Z,33.38
2019-02-16T05:07:59.919Z,32.78
2019-02-16T05:08:32.850Z,33.02
2019-02-16T05:09:06.278Z,32.83
2019-02-16T05:09:39.440Z,32.88
2019-02-16T05:10:12.449Z,32.90
2019-02-16T05:10:45.464Z,33.35
2019-02-16T05:11:18.350Z,33.42
2019-02-16T05:11:51.272Z,32.98
2019-02-16T05:12:24.421Z,33.45
2019-02-16T05:12:57.677Z,32.75
2019-02-16T05:13:30.625Z,33.23
2019-02-16T05:14:03.723Z,33.67
2019-02-16T05:14:36.600Z,33.28
2019-02-16T05:15:09.728Z,33.13
2019-02-16T05:15:42.621Z,32.15
2019-02-16T05:16:15.550Z,33.40
2019-02-16T05:16:48.481Z,33.38
2019-02-16T05:17:22.609Z,33.40
2019-02-16T05:17:55.626Z,32.95
2019-02-16T05:18:28.456Z,33.15
2019-02-16T05:19:01.256Z,33.45
2019-02-16T05:19:34.234Z,33.33
2019-02-16T05:20:07.354Z,33.33
2019-02-16T05:20:40.272Z,33.95
2019-02-16T05:21:13.250Z,33.63
2019-02-16T05:21:46.187Z,34.18
2019-02-16T05:22:19.085Z,34.38
2019-02-16T05:22:51.938Z,33.40
2019-02-16T05:23:24.716Z,34.25
2019-02-16T05:23:57.753Z,34.27
2019-02-16T05:24:30.654Z,34.08
2019-02-16T05:25:04.202Z,33.50
2019-02-16T05:25:37.135Z,34.20
2019-02-16T05:26:10.158Z,34.05
2019-02-16T05:26:42.950Z,34.40
2019-02-16T05:27:16.008Z,34.70
2019-02-16T05:27:48.897Z,34.08
2019-02-16T05:28:21.858Z,34.50
2019-02-16T05:28:54.759Z,34.38
2019-02-16T05:29:27.605Z,34.05
2019-02-16T05:30:00.386Z,34.13
2019-02-16T05:30:33.347Z,33.80
2019-02-16T05:31:06.324Z,33.65
2019-02-16T05:31:39.292Z,33.60
2019-02-16T05:32:12.210Z,34.00
2019-02-16T05:32:45.226Z,33.20
2019-02-16T05:33:18.122Z,34.60
2019-02-16T05:33:51.163Z,33.73
2019-02-16T05:34:24.148Z,33.95
2019-02-16T05:34:56.982Z,33.30
2019-02-16T05:35:31.097Z,33.73
2019-02-16T05:36:03.934Z,33.95
2019-02-16T05:36:37.313Z,34.55
2019-02-16T05:37:11.378Z,33.10
2019-02-16T05:37:44.415Z,34.18
2019-02-16T05:38:18.876Z,33.80
2019-02-16T05:38:51.938Z,34.58
2019-02-16T05:39:24.890Z,34.65
2019-02-16T05:39:58.072Z,34.63
2019-02-16T05:40:32.109Z,35.10
2019-02-16T05:41:05.219Z,34.80
2019-02-16T05:41:38.196Z,34.48
2019-02-16T05:42:11.328Z,34.90
2019-02-16T05:42:45.422Z,35.17
2019-02-16T05:43:18.407Z,35.20
2019-02-16T05:43:51.286Z,34.45
2019-02-16T05:44:24.359Z,35.13
2019-02-16T05:44:57.239Z,35.55
2019-02-16T05:45:30.092Z,34.88
2019-02-16T05:46:03.168Z,35.65
2019-02-16T05:46:36.031Z,35.75
2019-02-16T05:47:09.000Z,34.70
2019-02-16T05:47:41.953Z,36.03
2019-02-16T05:48:14.932Z,35.63
2019-02-16T05:48:48.174Z,35.63
2019-02-16T05:49:21.214Z,35.35
2019-02-16T05:49:54.169Z,35.00
2019-02-16T05:50:27.210Z,35.23
2019-02-16T05:51:00.026Z,35.80
2019-02-16T05:51:33.007Z,35.10
2019-02-16T05:52:06.091Z,34.92
2019-02-16T05:52:38.961Z,34.73
2019-02-16T05:53:11.936Z,34.95
2019-02-16T05:53:44.981Z,34.67
2019-02-16T05:54:18.101Z,34.45
2019-02-16T05:54:51.155Z,34.50
2019-02-16T05:55:24.050Z,34.45
2019-02-16T05:55:56.994Z,34.55
2019-02-16T05:56:29.878Z,33.85
2019-02-16T05:57:03.024Z,34.48
2019-02-16T05:57:36.036Z,34.73
2019-02-16T05:58:08.977Z,34.73
2019-02-16T05:58:41.956Z,34.58
2019-02-16T05:59:14.785Z,34.90
2019-02-16T05:59:47.675Z,34.13
2019-02-16T06:00:24.359Z,34.78
2019-02-16T06:00:57.150Z,34.25
2019-02-16T06:01:30.064Z,33.73
2019-02-16T06:02:02.955Z,34.10
2019-02-16T06:02:36.900Z,34.48
2019-02-16T06:03:09.889Z,34.05
2019-02-16T06:03:42.854Z,33.30
2019-02-16T06:04:15.875Z,34.38
2019-02-16T06:04:48.695Z,33.90
2019-02-16T06:05:21.604Z,33.38
2019-02-16T06:05:54.546Z,33.95
2019-02-16T06:06:27.471Z,34.40
2019-02-16T06:07:00.465Z,34.18
2019-02-16T06:07:33.375Z,34.20
2019-02-16T06:08:06.252Z,34.27
2019-02-16T06:08:39.352Z,35.03
2019-02-16T06:09:12.200Z,33.92
2019-02-16T06:09:45.115Z,34.45
2019-02-16T06:10:18.035Z,34.65
2019-02-16T06:10:50.896Z,33.95
2019-02-16T06:11:24.823Z,34.15
2019-02-16T06:11:57.699Z,33.80
2019-02-16T06:12:30.604Z,34.83
2019-02-16T06:13:03.593Z,34.73
2019-02-16T06:13:36.499Z,33.80
2019-02-16T06:14:09.413Z,34.50
2019-02-16T06:14:42.450Z,34.58
2019-02-16T06:15:15.463Z,34.58
2019-02-16T06:15:48.397Z,34.25
2019-02-16T06:16:21.185Z,34.50
2019-02-16T06:16:54.128Z,34.15
2019-02-16T06:17:26.925Z,33.67
2019-02-16T06:18:00.101Z,34.63
2019-02-16T06:18:33.009Z,34.95
2019-02-16T06:19:05.954Z,34.45
2019-02-16T06:19:38.925Z,34.43
2019-02-16T06:20:11.973Z,34.75
2019-02-16T06:20:44.768Z,33.73
2019-02-16T06:21:17.836Z,34.13
2019-02-16T06:21:50.816Z,34.63
2019-02-16T06:22:23.845Z,34.45
2019-02-16T06:23:03.916Z,34.13
2019-02-16T06:23:32.559Z,34.83
2019-02-16T06:24:05.476Z,34.50
2019-02-16T06:24:38.420Z,34.25
2019-02-16T06:25:11.312Z,33.78
2019-02-16T06:25:44.367Z,34.45
2019-02-16T06:26:17.265Z,34.20
2019-02-16T06:26:51.225Z,34.23
2019-02-16T06:27:24.124Z,33.45
2019-02-16T06:27:57.142Z,34.70
2019-02-16T06:28:30.037Z,34.35
2019-02-16T06:29:02.955Z,33.88
2019-02-16T06:29:35.843Z,33.78
2019-02-16T06:30:08.781Z,34.55
2019-02-16T06:30:41.569Z,34.38
2019-02-16T06:31:14.560Z,33.85
2019-02-16T06:31:47.562Z,33.60
2019-02-16T06:32:20.512Z,33.25
2019-02-16T06:32:53.419Z,34.38
2019-02-16T06:33:26.354Z,33.90
2019-02-16T06:33:59.327Z,33.92
2019-02-16T06:34:32.515Z,33.83
2019-02-16T06:35:24.068Z,33.65
2019-02-16T06:36:08.349Z,34.55
2019-02-16T06:36:42.111Z,33.88
2019-02-16T06:37:20.635Z,33.78
2019-02-16T06:37:53.551Z,34.40
2019-02-16T06:38:26.503Z,34.45
2019-02-16T06:38:59.511Z,34.23
2019-02-16T06:39:32.438Z,34.30
2019-02-16T06:40:05.616Z,34.70
2019-02-16T06:40:38.457Z,34.58
2019-02-16T06:41:11.358Z,34.18
2019-02-16T06:41:44.318Z,34.60
2019-02-16T06:42:17.671Z,33.33
2019-02-16T06:42:50.691Z,34.10
2019-02-16T06:43:23.763Z,34.40
2019-02-16T06:43:56.754Z,34.65
2019-02-16T06:44:29.682Z,33.70
2019-02-16T06:45:03.074Z,33.30
2019-02-16T06:45:36.267Z,34.18
2019-02-16T06:46:09.241Z,34.30
2019-02-16T06:46:42.293Z,33.73
2019-02-16T06:47:15.233Z,34.20
2019-02-16T06:47:49.444Z,33.85
2019-02-16T06:48:22.579Z,33.78
2019-02-16T06:48:55.477Z,34.60
2019-02-16T06:49:28.640Z,34.58
2019-02-16T06:50:01.545Z,34.10
2019-02-16T06:50:37.180Z,33.98
2019-02-16T06:51:10.425Z,33.90
2019-02-16T06:51:43.275Z,33.63
2019-02-16T06:52:16.188Z,34.80
2019-02-16T06:52:49.113Z,34.60
2019-02-16T06:53:21.986Z,34.55
2019-02-16T06:53:54.901Z,34.70
2019-02-16T06:54:27.751Z,34.88
2019-02-16T06:55:00.587Z,34.70
2019-02-16T06:55:40.701Z,34.90
2019-02-16T06:56:20.718Z,35.15
2019-02-16T06:57:03.453Z,35.23
2019-02-16T06:57:36.957Z,35.20
2019-02-16T06:58:09.756Z,35.48
2019-02-16T06:58:42.688Z,35.88
2019-02-16T06:59:15.475Z,35.48
2019-02-16T06:59:49.965Z,35.50
2019-02-16T07:00:25.997Z,36.13
2019-02-16T07:00:59.053Z,35.98
2019-02-16T07:01:33.196Z,35.60
2019-02-16T07:02:07.131Z,35.13
2019-02-16T07:02:39.944Z,34.80
2019-02-16T07:03:12.873Z,35.55
2019-02-16T07:03:45.648Z,34.70
2019-02-16T07:04:18.852Z,35.20
2019-02-16T07:04:51.755Z,35.45
2019-02-16T07:05:24.881Z,35.55
2019-02-16T07:05:57.679Z,34.45
2019-02-16T07:06:32.203Z,34.63
2019-02-16T07:07:05.293Z,35.55
2019-02-16T07:07:38.240Z,34.80
2019-02-16T07:08:10.999Z,34.85
2019-02-16T07:08:44.289Z,34.95
2019-02-16T07:09:17.262Z,34.98
2019-02-16T07:09:50.216Z,34.90
2019-02-16T07:10:23.202Z,34.95
2019-02-16T07:10:56.272Z,34.80
2019-02-16T07:11:29.065Z,34.90
2019-02-16T07:12:02.097Z,35.25
2019-02-16T07:12:35.111Z,34.53
2019-02-16T07:13:08.152Z,34.55
2019-02-16T07:13:41.064Z,34.58
2019-02-16T07:14:14.092Z,34.80
2019-02-16T07:14:46.990Z,35.13
2019-02-16T07:15:20.070Z,34.50
2019-02-16T07:16:11.006Z,35.52
2019-02-16T07:16:52.954Z,35.80
2019-02-16T07:17:45.778Z,34.65
2019-02-16T07:18:30.474Z,34.90
2019-02-16T07:19:15.176Z,34.18
2019-02-16T07:19:51.260Z,35.48